sensor_id;sensor_type;location;lat;lon;timestamp;pressure;altitude;pressure_sealevel;temperature;humidity
19789;BME280;10054;59.332;18.244;2023-03-23T00:01:30;98799.25;;;6.16;100.00
19789;BME280;10054;59.332;18.244;2023-03-23T00:04:01;98799.47;;;6.13;100.00
19789;BME280;10054;59.332;18.244;2023-03-23T00:06:29;98794.46;;;6.10;100.00
19789;BME280;10054;59.332;18.244;2023-03-23T00:09:00;98799.20;;;6.05;100.00
19789;BME280;10054;59.332;18.244;2023-03-23T00:11:32;98807.27;;;6.02;100.00
19789;BME280;10054;59.332;18.244;2023-03-23T00:14:01;98811.31;;;6.00;100.00
19789;BME280;10054;59.332;18.244;2023-03-23T00:16:32;98811.17;;;5.96;100.00
19789;BME280;10054;59.332;18.244;2023-03-23T00:19:05;98813.56;;;5.93;100.00
19789;BME280;10054;59.332;18.244;2023-03-23T00:21:38;98812.01;;;5.91;100.00
19789;BME280;10054;59.332;18.244;2023-03-23T00:24:18;98816.52;;;5.89;100.00
19789;BME280;10054;59.332;18.244;2023-03-23T00:26:49;98808.97;;;5.84;100.00
19789;BME280;10054;59.332;18.244;2023-03-23T00:29:20;98815.62;;;5.83;100.00
19789;BME280;10054;59.332;18.244;2023-03-23T00:31:52;98820.95;;;5.81;100.00
19789;BME280;10054;59.332;18.244;2023-03-23T00:34:22;98824.88;;;5.81;100.00
19789;BME280;10054;59.332;18.244;2023-03-23T00:36:53;98821.80;;;5.82;100.00
19789;BME280;10054;59.332;18.244;2023-03-23T00:39:25;98831.20;;;5.84;100.00
19789;BME280;10054;59.332;18.244;2023-03-23T00:41:55;98819.06;;;5.83;100.00
19789;BME280;10054;59.332;18.244;2023-03-23T00:44:25;98821.69;;;5.83;100.00
19789;BME280;10054;59.332;18.244;2023-03-23T00:46:56;98820.63;;;5.86;100.00
19789;BME280;10054;59.332;18.244;2023-03-23T00:49:26;98814.92;;;5.86;100.00
19789;BME280;10054;59.332;18.244;2023-03-23T00:51:57;98824.92;;;5.87;100.00
19789;BME280;10054;59.332;18.244;2023-03-23T00:54:27;98817.83;;;5.89;100.00
19789;BME280;10054;59.332;18.244;2023-03-23T00:56:56;98827.89;;;5.88;100.00
19789;BME280;10054;59.332;18.244;2023-03-23T00:59:25;98832.04;;;5.85;100.00
19789;BME280;10054;59.332;18.244;2023-03-23T01:01:54;98823.36;;;5.84;100.00
19789;BME280;10054;59.332;18.244;2023-03-23T01:04:23;98820.95;;;5.81;100.00
19789;BME280;10054;59.332;18.244;2023-03-23T01:06:54;98817.83;;;5.76;100.00
19789;BME280;10054;59.332;18.244;2023-03-23T01:09:24;98820.20;;;5.74;100.00
19789;BME280;10054;59.332;18.244;2023-03-23T01:11:54;98815.07;;;5.72;100.00
19789;BME280;10054;59.332;18.244;2023-03-23T01:14:24;98813.98;;;5.69;100.00
19789;BME280;10054;59.332;18.244;2023-03-23T01:16:52;98817.55;;;5.68;100.00
19789;BME280;10054;59.332;18.244;2023-03-23T01:19:22;98820.52;;;5.69;100.00
19789;BME280;10054;59.332;18.244;2023-03-23T01:21:51;98822.99;;;5.65;100.00
19789;BME280;10054;59.332;18.244;2023-03-23T01:24:20;98821.91;;;5.62;100.00
19789;BME280;10054;59.332;18.244;2023-03-23T01:26:49;98815.83;;;5.61;100.00
19789;BME280;10054;59.332;18.244;2023-03-23T01:29:18;98822.59;;;5.58;100.00
19789;BME280;10054;59.332;18.244;2023-03-23T01:31:47;98823.28;;;5.55;100.00
19789;BME280;10054;59.332;18.244;2023-03-23T01:34:16;98822.08;;;5.53;100.00
19789;BME280;10054;59.332;18.244;2023-03-23T01:36:46;98827.42;;;5.52;100.00
19789;BME280;10054;59.332;18.244;2023-03-23T01:39:15;98833.34;;;5.48;100.00
19789;BME280;10054;59.332;18.244;2023-03-23T01:41:44;98835.33;;;5.45;100.00
19789;BME280;10054;59.332;18.244;2023-03-23T01:46:54;98833.98;;;5.39;100.00
19789;BME280;10054;59.332;18.244;2023-03-23T01:49:25;98840.94;;;5.33;100.00
19789;BME280;10054;59.332;18.244;2023-03-23T01:51:58;98832.84;;;5.31;100.00
19789;BME280;10054;59.332;18.244;2023-03-23T01:54:28;98831.74;;;5.27;100.00
19789;BME280;10054;59.332;18.244;2023-03-23T01:57:01;98831.95;;;5.24;100.00
19789;BME280;10054;59.332;18.244;2023-03-23T01:59:30;98832.16;;;5.21;100.00
19789;BME280;10054;59.332;18.244;2023-03-23T02:02:02;98827.77;;;5.22;100.00
19789;BME280;10054;59.332;18.244;2023-03-23T02:04:32;98826.71;;;5.19;100.00
19789;BME280;10054;59.332;18.244;2023-03-23T02:07:02;98826.92;;;5.16;100.00
19789;BME280;10054;59.332;18.244;2023-03-23T02:09:31;98823.47;;;5.15;100.00
19789;BME280;10054;59.332;18.244;2023-03-23T02:12:00;98822.73;;;5.13;100.00
19789;BME280;10054;59.332;18.244;2023-03-23T02:14:31;98832.20;;;5.09;100.00
19789;BME280;10054;59.332;18.244;2023-03-23T02:17:31;98832.41;;;5.06;100.00
19789;BME280;10054;59.332;18.244;2023-03-23T02:31:12;98829.53;;;4.90;100.00
19789;BME280;10054;59.332;18.244;2023-03-23T02:33:47;98818.56;;;4.85;100.00
19789;BME280;10054;59.332;18.244;2023-03-23T02:39:21;98821.59;;;4.79;100.00
19789;BME280;10054;59.332;18.244;2023-03-23T02:41:56;98818.81;;;4.75;100.00
19789;BME280;10054;59.332;18.244;2023-03-23T02:44:27;98818.92;;;4.74;100.00
19789;BME280;10054;59.332;18.244;2023-03-23T02:46:59;98828.27;;;4.71;100.00
19789;BME280;10054;59.332;18.244;2023-03-23T02:49:32;98830.14;;;4.69;100.00
19789;BME280;10054;59.332;18.244;2023-03-23T02:52:05;98825.48;;;4.67;100.00
19789;BME280;10054;59.332;18.244;2023-03-23T02:54:35;98827.37;;;4.65;100.00
19789;BME280;10054;59.332;18.244;2023-03-23T02:57:05;98820.67;;;4.60;100.00
19789;BME280;10054;59.332;18.244;2023-03-23T02:59:36;98827.41;;;4.57;100.00
19789;BME280;10054;59.332;18.244;2023-03-23T03:02:07;98823.86;;;4.58;100.00
19789;BME280;10054;59.332;18.244;2023-03-23T03:04:38;98825.73;;;4.56;100.00
19789;BME280;10054;59.332;18.244;2023-03-23T03:09:47;98818.94;;;4.54;100.00
19789;BME280;10054;59.332;18.244;2023-03-23T03:15:05;98818.78;;;4.50;100.00
19789;BME280;10054;59.332;18.244;2023-03-23T03:17:30;98830.89;;;4.51;100.00
19789;BME280;10054;59.332;18.244;2023-03-23T03:20:02;98834.34;;;4.51;100.00
19789;BME280;10054;59.332;18.244;2023-03-23T03:22:43;98834.45;;;4.50;100.00
19789;BME280;10054;59.332;18.244;2023-03-23T03:25:15;98829.80;;;4.48;100.00
19789;BME280;10054;59.332;18.244;2023-03-23T03:27:47;98828.59;;;4.46;100.00
19789;BME280;10054;59.332;18.244;2023-03-23T03:30:22;98825.14;;;4.46;100.00
19789;BME280;10054;59.332;18.244;2023-03-23T03:32:52;98825.95;;;4.41;100.00
19789;BME280;10054;59.332;18.244;2023-03-23T03:35:23;98828.55;;;4.41;100.00
19789;BME280;10054;59.332;18.244;2023-03-23T03:37:53;98834.25;;;4.40;100.00
19789;BME280;10054;59.332;18.244;2023-03-23T03:40:22;98833.23;;;4.36;100.00
19789;BME280;10054;59.332;18.244;2023-03-23T03:42:52;98823.84;;;4.33;100.00
19789;BME280;10054;59.332;18.244;2023-03-23T03:45:21;98831.09;;;4.35;100.00
19789;BME280;10054;59.332;18.244;2023-03-23T03:47:50;98835.02;;;4.35;100.00
19789;BME280;10054;59.332;18.244;2023-03-23T03:50:19;98835.85;;;4.36;100.00
19789;BME280;10054;59.332;18.244;2023-03-23T03:52:48;98844.63;;;4.35;100.00
19789;BME280;10054;59.332;18.244;2023-03-23T03:55:17;98841.07;;;4.36;100.00
19789;BME280;10054;59.332;18.244;2023-03-23T03:57:47;98840.33;;;4.34;100.00
19789;BME280;10054;59.332;18.244;2023-03-23T04:00:26;98828.32;;;4.31;100.00
19789;BME280;10054;59.332;18.244;2023-03-23T04:02:56;98826.55;;;4.32;100.00
19789;BME280;10054;59.332;18.244;2023-03-23T04:05:28;98826.08;;;4.32;100.00
19789;BME280;10054;59.332;18.244;2023-03-23T04:07:57;98836.15;;;4.31;100.00
19789;BME280;10054;59.332;18.244;2023-03-23T04:10:29;98827.95;;;4.30;100.00
19789;BME280;10054;59.332;18.244;2023-03-23T04:12:58;98829.73;;;4.29;100.00
19789;BME280;10054;59.332;18.244;2023-03-23T04:15:46;98829.56;;;4.25;100.00
19789;BME280;10054;59.332;18.244;2023-03-23T04:18:16;98830.49;;;4.24;100.00
19789;BME280;10054;59.332;18.244;2023-03-23T04:20:47;98831.43;;;4.23;100.00
19789;BME280;10054;59.332;18.244;2023-03-23T04:23:20;98833.10;;;4.24;100.00
19789;BME280;10054;59.332;18.244;2023-03-23T04:25:50;98837.59;;;4.22;100.00
19789;BME280;10054;59.332;18.244;2023-03-23T04:28:20;98841.87;;;4.23;100.00
19789;BME280;10054;59.332;18.244;2023-03-23T04:30:53;98848.30;;;4.25;100.00
19789;BME280;10054;59.332;18.244;2023-03-23T04:33:23;98847.66;;;4.21;100.00
19789;BME280;10054;59.332;18.244;2023-03-23T04:35:56;98846.08;;;4.19;100.00
19789;BME280;10054;59.332;18.244;2023-03-23T04:38:30;98846.45;;;4.20;100.00
19789;BME280;10054;59.332;18.244;2023-03-23T04:41:01;98846.55;;;4.18;100.00
19789;BME280;10054;59.332;18.244;2023-03-23T04:43:35;98848.89;;;4.16;100.00
19789;BME280;10054;59.332;18.244;2023-03-23T04:46:20;98857.09;;;4.17;100.00
19789;BME280;10054;59.332;18.244;2023-03-23T04:48:50;98848.05;;;4.15;100.00
19789;BME280;10054;59.332;18.244;2023-03-23T04:51:22;98846.48;;;4.13;100.00
19789;BME280;10054;59.332;18.244;2023-03-23T04:53:52;98849.28;;;4.10;100.00
19789;BME280;10054;59.332;18.244;2023-03-23T04:56:23;98851.89;;;4.10;100.00
19789;BME280;10054;59.332;18.244;2023-03-23T04:58:52;98858.78;;;4.11;100.00
19789;BME280;10054;59.332;18.244;2023-03-23T05:01:25;98865.31;;;4.11;100.00
19789;BME280;10054;59.332;18.244;2023-03-23T05:04:12;98855.61;;;4.13;100.00
19789;BME280;10054;59.332;18.244;2023-03-23T05:06:43;98859.59;;;4.18;100.00
19789;BME280;10054;59.332;18.244;2023-03-23T05:09:14;98862.21;;;4.18;100.00
19789;BME280;10054;59.332;18.244;2023-03-23T05:11:43;98858.20;;;4.20;100.00
19789;BME280;10054;59.332;18.244;2023-03-23T05:14:12;98853.72;;;4.22;100.00
19789;BME280;10054;59.332;18.244;2023-03-23T05:16:42;98857.90;;;4.24;100.00
19789;BME280;10054;59.332;18.244;2023-03-23T05:19:13;98855.19;;;4.26;100.00
19789;BME280;10054;59.332;18.244;2023-03-23T05:21:42;98851.45;;;4.30;100.00
19789;BME280;10054;59.332;18.244;2023-03-23T05:24:12;98862.69;;;4.38;100.00
19789;BME280;10054;59.332;18.244;2023-03-23T05:26:41;98861.09;;;4.42;100.00
19789;BME280;10054;59.332;18.244;2023-03-23T05:29:14;98863.00;;;4.46;100.00
19789;BME280;10054;59.332;18.244;2023-03-23T05:31:59;98872.47;;;4.54;100.00
19789;BME280;10054;59.332;18.244;2023-03-23T05:34:29;98867.22;;;4.61;100.00
19789;BME280;10054;59.332;18.244;2023-03-23T05:37:01;98868.31;;;4.64;100.00
19789;BME280;10054;59.332;18.244;2023-03-23T05:39:38;98864.46;;;4.70;100.00
19789;BME280;10054;59.332;18.244;2023-03-23T05:42:11;98862.85;;;4.74;100.00
19789;BME280;10054;59.332;18.244;2023-03-23T05:44:48;98870.02;;;4.78;100.00
19789;BME280;10054;59.332;18.244;2023-03-23T05:47:17;98873.53;;;4.84;100.00
19789;BME280;10054;59.332;18.244;2023-03-23T05:49:48;98871.34;;;4.90;100.00
19789;BME280;10054;59.332;18.244;2023-03-23T05:52:19;98879.13;;;4.98;100.00
19789;BME280;10054;59.332;18.244;2023-03-23T05:54:48;98882.38;;;5.01;100.00
19789;BME280;10054;59.332;18.244;2023-03-23T05:57:37;98886.83;;;5.06;100.00
19789;BME280;10054;59.332;18.244;2023-03-23T06:00:08;98887.92;;;5.09;100.00
19789;BME280;10054;59.332;18.244;2023-03-23T06:02:46;98886.05;;;5.11;100.00
19789;BME280;10054;59.332;18.244;2023-03-23T06:05:17;98881.91;;;5.14;100.00
19789;BME280;10054;59.332;18.244;2023-03-23T06:07:49;98879.93;;;5.18;100.00
19789;BME280;10054;59.332;18.244;2023-03-23T06:10:18;98881.97;;;5.20;100.00
19789;BME280;10054;59.332;18.244;2023-03-23T06:12:50;98879.11;;;5.23;100.00
19789;BME280;10054;59.332;18.244;2023-03-23T06:15:23;98897.00;;;5.29;100.00
19789;BME280;10054;59.332;18.244;2023-03-23T06:18:01;98883.98;;;5.35;100.00
19789;BME280;10054;59.332;18.244;2023-03-23T06:20:32;98885.91;;;5.38;100.00
19789;BME280;10054;59.332;18.244;2023-03-23T06:23:02;98888.00;;;5.46;100.00
19789;BME280;10054;59.332;18.244;2023-03-23T06:25:33;98879.36;;;5.51;100.00
19789;BME280;10054;59.332;18.244;2023-03-23T06:28:02;98880.34;;;5.55;100.00
19789;BME280;10054;59.332;18.244;2023-03-23T06:30:33;98876.00;;;5.61;100.00
19789;BME280;10054;59.332;18.244;2023-03-23T06:33:02;98882.22;;;5.66;100.00
19789;BME280;10054;59.332;18.244;2023-03-23T06:35:50;98892.47;;;5.69;100.00
19789;BME280;10054;59.332;18.244;2023-03-23T06:38:30;98887.06;;;5.78;100.00
19789;BME280;10054;59.332;18.244;2023-03-23T06:40:59;98899.13;;;5.86;100.00
19789;BME280;10054;59.332;18.244;2023-03-23T06:43:29;98903.49;;;5.92;100.00
19789;BME280;10054;59.332;18.244;2023-03-23T06:46:09;98900.67;;;6.01;100.00
19789;BME280;10054;59.332;18.244;2023-03-23T06:48:40;98902.16;;;6.11;100.00
19789;BME280;10054;59.332;18.244;2023-03-23T06:51:10;98909.35;;;6.20;100.00
19789;BME280;10054;59.332;18.244;2023-03-23T06:53:40;98914.41;;;6.29;100.00
19789;BME280;10054;59.332;18.244;2023-03-23T06:56:11;98911.59;;;6.37;100.00
19789;BME280;10054;59.332;18.244;2023-03-23T06:58:41;98900.06;;;6.40;100.00
19789;BME280;10054;59.332;18.244;2023-03-23T07:01:12;98911.52;;;6.44;100.00
19789;BME280;10054;59.332;18.244;2023-03-23T07:03:44;98890.22;;;6.49;100.00
19789;BME280;10054;59.332;18.244;2023-03-23T07:06:14;98891.19;;;6.53;100.00
19789;BME280;10054;59.332;18.244;2023-03-23T07:08:45;98893.81;;;6.53;100.00
19789;BME280;10054;59.332;18.244;2023-03-23T07:11:15;98892.53;;;6.59;100.00
19789;BME280;10054;59.332;18.244;2023-03-23T07:13:44;98895.06;;;6.66;100.00
19789;BME280;10054;59.332;18.244;2023-03-23T07:16:14;98899.34;;;6.73;100.00
19789;BME280;10054;59.332;18.244;2023-03-23T07:18:44;98899.49;;;6.82;100.00
19789;BME280;10054;59.332;18.244;2023-03-23T07:21:13;98907.87;;;6.93;100.00
19789;BME280;10054;59.332;18.244;2023-03-23T07:23:42;98902.75;;;6.97;100.00
19789;BME280;10054;59.332;18.244;2023-03-23T07:26:12;98908.61;;;7.01;100.00
19789;BME280;10054;59.332;18.244;2023-03-23T07:28:43;98913.63;;;7.09;100.00
19789;BME280;10054;59.332;18.244;2023-03-23T07:31:21;98916.76;;;7.20;100.00
19789;BME280;10054;59.332;18.244;2023-03-23T07:33:50;98917.02;;;7.34;100.00
19789;BME280;10054;59.332;18.244;2023-03-23T07:36:20;98925.95;;;7.48;100.00
19789;BME280;10054;59.332;18.244;2023-03-23T07:38:48;98921.19;;;7.58;100.00
19789;BME280;10054;59.332;18.244;2023-03-23T07:41:17;98933.25;;;7.67;100.00
19789;BME280;10054;59.332;18.244;2023-03-23T07:43:49;98931.94;;;7.72;100.00
19789;BME280;10054;59.332;18.244;2023-03-23T07:46:19;98932.30;;;7.79;100.00
19789;BME280;10054;59.332;18.244;2023-03-23T07:48:59;98928.84;;;7.84;100.00
19789;BME280;10054;59.332;18.244;2023-03-23T07:51:31;98939.45;;;7.88;100.00
19789;BME280;10054;59.332;18.244;2023-03-23T07:54:01;98937.78;;;7.93;100.00
19789;BME280;10054;59.332;18.244;2023-03-23T07:56:45;98940.28;;;8.00;100.00
19789;BME280;10054;59.332;18.244;2023-03-23T07:59:16;98938.73;;;8.03;99.10
19789;BME280;10054;59.332;18.244;2023-03-23T08:01:45;98938.02;;;8.06;99.21
19789;BME280;10054;59.332;18.244;2023-03-23T08:04:16;98943.86;;;8.10;99.87
19789;BME280;10054;59.332;18.244;2023-03-23T08:06:49;98944.20;;;8.16;97.96
19789;BME280;10054;59.332;18.244;2023-03-23T08:09:26;98946.92;;;8.20;99.33
19789;BME280;10054;59.332;18.244;2023-03-23T08:12:13;98945.23;;;8.31;99.09
19789;BME280;10054;59.332;18.244;2023-03-23T08:14:52;98937.12;;;8.39;95.79
19789;BME280;10054;59.332;18.244;2023-03-23T08:17:25;98935.56;;;8.42;96.44
19789;BME280;10054;59.332;18.244;2023-03-23T08:20:14;98928.99;;;8.42;96.04
19789;BME280;10054;59.332;18.244;2023-03-23T08:23:02;98931.86;;;8.45;95.50
19789;BME280;10054;59.332;18.244;2023-03-23T08:25:39;98932.45;;;8.43;93.98
19789;BME280;10054;59.332;18.244;2023-03-23T08:28:25;98928.27;;;8.46;93.59
19789;BME280;10054;59.332;18.244;2023-03-23T08:31:09;98922.98;;;8.57;93.62
19789;BME280;10054;59.332;18.244;2023-03-23T08:33:56;98932.88;;;8.65;92.49
19789;BME280;10054;59.332;18.244;2023-03-23T08:36:34;98927.01;;;8.67;89.62
19789;BME280;10054;59.332;18.244;2023-03-23T08:39:23;98930.93;;;8.72;91.35
19789;BME280;10054;59.332;18.244;2023-03-23T08:41:57;98931.88;;;8.77;90.42
19789;BME280;10054;59.332;18.244;2023-03-23T08:44:44;98930.66;;;8.81;89.59
19789;BME280;10054;59.332;18.244;2023-03-23T08:47:17;98927.52;;;8.87;89.06
19789;BME280;10054;59.332;18.244;2023-03-23T08:49:49;98923.05;;;8.93;87.88
19789;BME280;10054;59.332;18.244;2023-03-23T08:52:29;98925.52;;;9.00;85.95
19789;BME280;10054;59.332;18.244;2023-03-23T08:55:19;98918.18;;;9.09;87.12
19789;BME280;10054;59.332;18.244;2023-03-23T08:58:02;98915.27;;;9.18;86.50
19789;BME280;10054;59.332;18.244;2023-03-23T09:00:39;98921.33;;;9.24;86.61
19789;BME280;10054;59.332;18.244;2023-03-23T09:03:12;98921.30;;;9.30;86.02
19789;BME280;10054;59.332;18.244;2023-03-23T09:05:44;98923.50;;;9.40;85.86
19789;BME280;10054;59.332;18.244;2023-03-23T09:08:28;98918.91;;;9.47;85.16
19789;BME280;10054;59.332;18.244;2023-03-23T09:11:02;98916.59;;;9.54;85.31
19789;BME280;10054;59.332;18.244;2023-03-23T09:13:31;98904.56;;;9.61;84.53
19789;BME280;10054;59.332;18.244;2023-03-23T09:16:00;98911.52;;;9.72;83.35
19789;BME280;10054;59.332;18.244;2023-03-23T09:18:29;98910.50;;;9.78;83.02
19789;BME280;10054;59.332;18.244;2023-03-23T09:21:00;98906.91;;;9.79;80.60
19789;BME280;10054;59.332;18.244;2023-03-23T09:23:30;98905.27;;;9.88;81.08
19789;BME280;10054;59.332;18.244;2023-03-23T09:26:02;98903.91;;;9.94;82.07
19789;BME280;10054;59.332;18.244;2023-03-23T09:28:31;98902.41;;;10.01;81.16
19789;BME280;10054;59.332;18.244;2023-03-23T09:31:00;98898.61;;;10.09;80.81
19789;BME280;10054;59.332;18.244;2023-03-23T09:33:29;98899.95;;;10.18;80.16
19789;BME280;10054;59.332;18.244;2023-03-23T09:36:04;98894.66;;;10.24;79.64
19789;BME280;10054;59.332;18.244;2023-03-23T09:38:35;98889.95;;;10.28;77.85
19789;BME280;10054;59.332;18.244;2023-03-23T09:43:53;98891.64;;;10.38;78.91
19789;BME280;10054;59.332;18.244;2023-03-23T09:49:32;98889.61;;;10.56;79.03
19789;BME280;10054;59.332;18.244;2023-03-23T09:52:08;98888.44;;;10.64;78.57
19789;BME280;10054;59.332;18.244;2023-03-23T09:54:39;98891.00;;;10.69;78.79
19789;BME280;10054;59.332;18.244;2023-03-23T10:02:45;98890.38;;;10.81;78.64
19789;BME280;10054;59.332;18.244;2023-03-23T10:05:32;98889.89;;;10.81;78.50
19789;BME280;10054;59.332;18.244;2023-03-23T10:07:57;98897.53;;;10.84;77.97
19789;BME280;10054;59.332;18.244;2023-03-23T10:10:50;98885.23;;;10.89;78.82
19789;BME280;10054;59.332;18.244;2023-03-23T10:15:46;98892.39;;;10.93;78.11
19789;BME280;10054;59.332;18.244;2023-03-23T10:18:29;98886.20;;;10.98;78.00
19789;BME280;10054;59.332;18.244;2023-03-23T10:21:00;98890.29;;;11.06;77.17
19789;BME280;10054;59.332;18.244;2023-03-23T10:26:28;98888.83;;;11.07;75.65
19789;BME280;10054;59.332;18.244;2023-03-23T10:29:01;98888.83;;;11.07;75.65
19789;BME280;10054;59.332;18.244;2023-03-23T10:31:31;98891.89;;;11.03;74.91
19789;BME280;10054;59.332;18.244;2023-03-23T10:34:05;98885.98;;;11.05;75.45
19789;BME280;10054;59.332;18.244;2023-03-23T10:36:37;98889.87;;;11.10;75.14
19789;BME280;10054;59.332;18.244;2023-03-23T10:39:23;98889.96;;;11.18;75.72
19789;BME280;10054;59.332;18.244;2023-03-23T10:41:47;98885.09;;;11.24;74.96
19789;BME280;10054;59.332;18.244;2023-03-23T10:44:21;98889.74;;;11.26;75.80
19789;BME280;10054;59.332;18.244;2023-03-23T10:49:30;98883.89;;;11.32;75.60
19789;BME280;10054;59.332;18.244;2023-03-23T10:52:03;98876.29;;;11.42;73.90
19789;BME280;10054;59.332;18.244;2023-03-23T10:54:38;98876.29;;;11.42;73.90
19789;BME280;10054;59.332;18.244;2023-03-23T10:57:23;98875.38;;;11.47;73.77
19789;BME280;10054;59.332;18.244;2023-03-23T11:00:04;98876.60;;;11.53;74.75
19789;BME280;10054;59.332;18.244;2023-03-23T11:02:28;98872.02;;;11.55;75.51
19789;BME280;10054;59.332;18.244;2023-03-23T11:05:00;98867.99;;;11.51;74.40
19789;BME280;10054;59.332;18.244;2023-03-23T11:07:31;98867.99;;;11.51;74.40
19789;BME280;10054;59.332;18.244;2023-03-23T11:10:07;98870.14;;;11.51;75.52
19789;BME280;10054;59.332;18.244;2023-03-23T11:12:36;98877.38;;;11.49;75.60
19789;BME280;10054;59.332;18.244;2023-03-23T11:15:26;98865.44;;;11.45;74.86
19789;BME280;10054;59.332;18.244;2023-03-23T11:18:05;98867.88;;;11.43;74.47
19789;BME280;10054;59.332;18.244;2023-03-23T11:20:34;98870.38;;;11.44;74.91
19789;BME280;10054;59.332;18.244;2023-03-23T11:23:01;98865.84;;;11.50;74.61
19789;BME280;10054;59.332;18.244;2023-03-23T11:25:31;98863.11;;;11.56;74.33
19789;BME280;10054;59.332;18.244;2023-03-23T11:28:02;98862.67;;;11.61;73.43
19789;BME280;10054;59.332;18.244;2023-03-23T11:30:31;98867.87;;;11.66;73.91
19789;BME280;10054;59.332;18.244;2023-03-23T11:33:01;98858.13;;;11.67;71.79
19789;BME280;10054;59.332;18.244;2023-03-23T11:35:30;98850.75;;;11.70;73.50
19789;BME280;10054;59.332;18.244;2023-03-23T11:37:59;98849.42;;;11.80;72.86
19789;BME280;10054;59.332;18.244;2023-03-23T11:40:30;98849.42;;;11.80;72.86
19789;BME280;10054;59.332;18.244;2023-03-23T11:43:12;98848.00;;;11.86;72.68
19789;BME280;10054;59.332;18.244;2023-03-23T11:45:47;98853.77;;;11.85;72.60
19789;BME280;10054;59.332;18.244;2023-03-23T11:48:40;98854.55;;;11.81;72.45
19789;BME280;10054;59.332;18.244;2023-03-23T11:51:17;98852.20;;;11.78;72.57
19789;BME280;10054;59.332;18.244;2023-03-23T11:54:07;98851.29;;;11.74;72.19
19789;BME280;10054;59.332;18.244;2023-03-23T11:56:38;98856.13;;;11.65;71.13
19789;BME280;10054;59.332;18.244;2023-03-23T11:59:12;98856.22;;;11.59;71.58
19789;BME280;10054;59.332;18.244;2023-03-23T12:01:47;98852.06;;;11.57;72.23
19789;BME280;10054;59.332;18.244;2023-03-23T12:14:55;98846.41;;;11.42;71.45
19789;BME280;10054;59.332;18.244;2023-03-23T12:17:33;98851.64;;;11.38;71.59
19789;BME280;10054;59.332;18.244;2023-03-23T12:25:43;98838.12;;;11.27;71.20
19789;BME280;10054;59.332;18.244;2023-03-23T12:36:48;98828.56;;;11.40;70.07
19789;BME280;10054;59.332;18.244;2023-03-23T12:44:53;98822.07;;;11.48;68.65
19789;BME280;10054;59.332;18.244;2023-03-23T12:52:50;98822.13;;;11.52;68.19
19789;BME280;10054;59.332;18.244;2023-03-23T12:55:49;98810.44;;;11.55;68.43
19789;BME280;10054;59.332;18.244;2023-03-23T12:58:26;98813.33;;;11.61;68.62
19789;BME280;10054;59.332;18.244;2023-03-23T13:01:05;98815.92;;;11.71;67.96
19789;BME280;10054;59.332;18.244;2023-03-23T13:03:51;98816.59;;;11.82;68.15
19789;BME280;10054;59.332;18.244;2023-03-23T13:11:38;98811.43;;;12.12;66.29
19789;BME280;10054;59.332;18.244;2023-03-23T13:22:32;98802.07;;;12.18;65.15
19789;BME280;10054;59.332;18.244;2023-03-23T13:25:02;98804.49;;;12.29;64.56
19789;BME280;10054;59.332;18.244;2023-03-23T13:27:32;98804.49;;;12.29;64.56
19789;BME280;10054;59.332;18.244;2023-03-23T13:30:00;98803.33;;;12.28;64.58
19789;BME280;10054;59.332;18.244;2023-03-23T13:32:36;98796.83;;;12.22;64.52
19789;BME280;10054;59.332;18.244;2023-03-23T13:35:17;98796.83;;;12.22;64.52
19789;BME280;10054;59.332;18.244;2023-03-23T13:37:44;98798.30;;;12.21;64.45
19789;BME280;10054;59.332;18.244;2023-03-23T13:40:15;98798.94;;;12.18;64.02
19789;BME280;10054;59.332;18.244;2023-03-23T13:42:52;98797.77;;;12.17;64.98
19789;BME280;10054;59.332;18.244;2023-03-23T13:51:01;98797.53;;;12.10;64.98
19789;BME280;10054;59.332;18.244;2023-03-23T13:54:03;98774.60;;;11.97;65.46
19789;BME280;10054;59.332;18.244;2023-03-23T13:56:17;98774.60;;;11.97;65.46
19789;BME280;10054;59.332;18.244;2023-03-23T13:58:49;98783.70;;;11.99;64.69
19789;BME280;10054;59.332;18.244;2023-03-23T14:01:32;98782.38;;;11.99;65.43
19789;BME280;10054;59.332;18.244;2023-03-23T14:03:54;98781.89;;;11.99;65.38
19789;BME280;10054;59.332;18.244;2023-03-23T14:06:23;98780.95;;;12.04;65.24
19789;BME280;10054;59.332;18.244;2023-03-23T14:08:55;98780.95;;;12.04;65.24
19789;BME280;10054;59.332;18.244;2023-03-23T14:11:27;98769.86;;;12.18;64.91
19789;BME280;10054;59.332;18.244;2023-03-23T14:14:01;98769.86;;;12.18;64.91
19789;BME280;10054;59.332;18.244;2023-03-23T14:16:39;98764.80;;;12.25;65.06
19789;BME280;10054;59.332;18.244;2023-03-23T14:19:25;98764.80;;;12.25;65.06
19789;BME280;10054;59.332;18.244;2023-03-23T14:22:01;98760.16;;;12.23;65.08
19789;BME280;10054;59.332;18.244;2023-03-23T14:24:40;98757.51;;;12.23;65.08
19789;BME280;10054;59.332;18.244;2023-03-23T14:27:15;98750.86;;;12.19;65.40
19789;BME280;10054;59.332;18.244;2023-03-23T14:29:45;98756.53;;;12.24;65.76
19789;BME280;10054;59.332;18.244;2023-03-23T14:32:16;98750.11;;;12.27;65.78
19789;BME280;10054;59.332;18.244;2023-03-23T14:34:47;98754.14;;;12.35;66.15
19789;BME280;10054;59.332;18.244;2023-03-23T14:37:17;98754.14;;;12.35;66.15
19789;BME280;10054;59.332;18.244;2023-03-23T14:39:48;98743.41;;;12.36;66.02
19789;BME280;10054;59.332;18.244;2023-03-23T14:42:27;98747.88;;;12.36;65.78
19789;BME280;10054;59.332;18.244;2023-03-23T14:44:50;98751.50;;;12.35;66.27
19789;BME280;10054;59.332;18.244;2023-03-23T14:47:25;98744.55;;;12.34;66.35
19789;BME280;10054;59.332;18.244;2023-03-23T14:49:56;98744.70;;;12.32;66.29
19789;BME280;10054;59.332;18.244;2023-03-23T14:52:28;98742.70;;;12.30;66.10
19789;BME280;10054;59.332;18.244;2023-03-23T14:55:16;98738.20;;;12.27;66.35
19789;BME280;10054;59.332;18.244;2023-03-23T14:57:45;98741.95;;;12.20;66.85